Time;durP1;ratioP1;P1;durP2;ratioP2;P2;SDS_P1;SDS_P2;PMS_P1;PMS_P2;Temp;Humidity;BMP_temperature;BMP_pressure;BME280_temperature;BME280_humidity;BME280_pressure;Samples;Min_cycle;Max_cycle;Signal;HPM_P1;HPM_P2
2022/08/10 00:00:42;;;;;;;7.47;4.30;;;15.50;79.40;;;;;;5032227;28;20064;-67
2022/08/10 00:03:08;;;;;;;6.10;4.27;;;15.50;79.50;;;;;;5030469;28;20052;-67
2022/08/10 00:05:35;;;;;;;6.33;4.10;;;15.40;79.70;;;;;;5064821;28;20036;-67
2022/08/10 00:08:01;;;;;;;6.33;4.00;;;15.40;80.00;;;;;;5045620;28;20291;-67
2022/08/10 00:10:27;;;;;;;5.13;3.97;;;15.40;80.10;;;;;;5048608;28;20659;-67
2022/08/10 00:12:53;;;;;;;6.10;4.53;;;15.40;80.10;;;;;;5059142;28;20295;-67
2022/08/10 00:15:21;;;;;;;5.17;4.20;;;15.50;80.10;;;;;;5063906;28;20044;-67
2022/08/10 00:17:47;;;;;;;6.63;4.77;;;15.50;80.60;;;;;;5063789;28;20278;-67
2022/08/10 00:20:13;;;;;;;5.23;3.80;;;15.50;80.60;;;;;;5048680;28;20638;-67
2022/08/10 00:22:39;;;;;;;6.87;4.07;;;15.50;80.60;;;;;;5043505;28;20282;-67
2022/08/10 00:25:06;;;;;;;6.67;4.37;;;15.50;80.80;;;;;;5060079;28;20301;-67
2022/08/10 00:27:32;;;;;;;6.63;4.17;;;15.40;80.90;;;;;;5047273;28;20070;-67
2022/08/10 00:29:58;;;;;;;5.13;4.00;;;15.40;81.00;;;;;;5064778;28;20881;-67
2022/08/10 00:32:23;;;;;;;5.83;4.77;;;15.40;81.00;;;;;;5047116;28;20291;-67
2022/08/10 00:34:49;;;;;;;5.50;4.13;;;15.40;81.40;;;;;;5064535;28;20573;-67
2022/08/10 00:37:17;;;;;;;6.13;4.63;;;15.40;81.30;;;;;;5062866;28;20085;-67
2022/08/10 00:39:43;;;;;;;6.53;4.33;;;15.30;81.20;;;;;;5064286;28;20291;-67
2022/08/10 00:42:11;;;;;;;7.73;4.70;;;15.30;81.40;;;;;;5080433;28;20290;-67
2022/08/10 00:44:38;;;;;;;6.33;4.30;;;15.20;81.30;;;;;;5078796;28;20290;-67
2022/08/10 00:47:05;;;;;;;7.00;4.67;;;15.20;81.60;;;;;;5064254;28;20338;-67
2022/08/10 00:49:31;;;;;;;7.57;4.57;;;15.20;81.60;;;;;;5046988;28;20318;-67
2022/08/10 00:51:57;;;;;;;7.43;5.00;;;15.10;81.60;;;;;;5040539;28;20830;-67
2022/08/10 00:54:23;;;;;;;7.83;4.73;;;15.10;81.60;;;;;;5064162;28;20047;-67
2022/08/10 00:56:48;;;;;;;7.33;4.93;;;15.10;81.70;;;;;;5047019;28;20032;-67
2022/08/10 00:59:15;;;;;;;6.57;5.20;;;15.00;81.60;;;;;;5064135;28;20126;-67
2022/08/10 01:01:40;;;;;;;8.67;5.57;;;15.00;81.90;;;;;;5063962;28;20058;-67
2022/08/10 01:04:06;;;;;;;7.83;5.37;;;14.90;81.80;;;;;;5063706;28;20287;-67
2022/08/10 01:07:01;;;;;;;6.73;5.03;;;14.90;81.80;;;;;;5063928;28;20048;-67
2022/08/10 01:09:42;;;;;;;10.43;5.07;;;14.80;82.00;;;;;;5016667;28;20543;-67
2022/08/10 01:12:30;;;;;;;8.30;5.30;;;14.80;82.00;;;;;;5054446;28;20037;-67
2022/08/10 01:15:00;;;;;;;7.57;4.80;;;14.80;82.30;;;;;;5063675;28;20312;-67
2022/08/10 01:17:36;;;;;;;10.70;6.17;;;14.70;82.40;;;;;;5059029;28;20304;-67
2022/08/10 01:20:24;;;;;;;7.40;4.97;;;14.80;82.50;;;;;;5047107;28;20294;-67
2022/08/10 01:23:47;;;;;;;6.93;5.00;;;14.80;82.40;;;;;;5063624;28;20999;-67
2022/08/10 01:26:56;;;;;;;9.03;5.40;;;14.70;82.60;;;;;;5025288;28;20299;-67
2022/08/10 01:29:48;;;;;;;7.63;5.33;;;14.80;82.70;;;;;;5022275;28;20337;-67
2022/08/10 01:32:16;;;;;;;9.63;5.60;;;14.80;83.10;;;;;;5062116;28;20290;-67
2022/08/10 01:34:49;;;;;;;8.33;5.67;;;14.80;82.90;;;;;;5063365;28;20675;-67
2022/08/10 01:37:19;;;;;;;9.40;5.77;;;14.80;83.30;;;;;;5062701;28;20362;-67
2022/08/10 01:39:50;;;;;;;8.97;5.77;;;14.90;83.30;;;;;;5081173;28;20294;-67
2022/08/10 01:42:18;;;;;;;8.33;5.93;;;14.90;83.40;;;;;;5063652;28;20286;-67
2022/08/10 01:44:53;;;;;;;8.40;6.13;;;14.90;83.60;;;;;;5050067;28;20305;-67
2022/08/10 01:50:27;;;;;;;8.18;5.78;;;14.90;83.70;;;;;;5064381;28;20302;-67
2022/08/10 01:52:59;;;;;;;7.80;5.57;;;14.90;83.80;;;;;;5066390;28;20048;-67
2022/08/10 01:55:26;;;;;;;7.40;5.80;;;14.90;83.70;;;;;;5066130;28;20341;-67
2022/08/10 01:57:53;;;;;;;7.53;5.27;;;14.90;83.70;;;;;;5062864;28;20317;-67
2022/08/10 02:00:19;;;;;;;7.83;5.70;;;14.80;84.00;;;;;;5066971;28;20290;-67
2022/08/10 02:02:47;;;;;;;9.80;5.80;;;14.80;84.10;;;;;;5044592;28;20290;-67
2022/08/10 02:05:15;;;;;;;8.43;6.00;;;14.80;84.10;;;;;;5067240;28;20790;-67
2022/08/10 02:07:42;;;;;;;10.23;5.60;;;14.80;84.40;;;;;;5066950;28;20286;-67
2022/08/10 02:10:13;;;;;;;9.53;6.40;;;14.80;84.40;;;;;;5067390;28;20938;-67
2022/08/10 02:12:41;;;;;;;10.17;6.87;;;14.80;84.60;;;;;;5066992;28;20343;-67
2022/08/10 02:15:15;;;;;;;9.43;6.70;;;14.80;84.70;;;;;;5066786;28;20650;-67
2022/08/10 02:17:48;;;;;;;8.77;6.17;;;14.90;84.90;;;;;;5076733;28;20373;-67
2022/08/10 02:20:23;;;;;;;10.73;6.37;;;14.90;84.90;;;;;;5067366;28;20282;-68
2022/08/10 02:22:58;;;;;;;9.90;6.40;;;14.90;84.90;;;;;;5066760;28;20343;-67
2022/08/10 02:25:26;;;;;;;9.98;6.15;;;14.80;85.00;;;;;;5078502;28;20286;-67
2022/08/10 02:27:53;;;;;;;10.90;6.83;;;14.80;84.90;;;;;;5050062;28;20079;-67
2022/08/10 02:30:20;;;;;;;9.07;6.50;;;14.80;85.10;;;;;;5058333;28;20307;-67
2022/08/10 02:32:48;;;;;;;11.70;7.10;;;14.80;85.10;;;;;;5062195;28;20298;-67
2022/08/10 02:35:14;;;;;;;11.87;7.47;;;14.80;85.40;;;;;;5066690;28;20271;-67
2022/08/10 02:37:45;;;;;;;12.30;7.10;;;14.90;85.30;;;;;;5065552;28;20826;-67
2022/08/10 02:40:11;;;;;;;10.20;7.27;;;14.90;85.60;;;;;;5050139;28;20383;-67
2022/08/10 02:42:56;;;;;;;10.80;7.33;;;15.00;85.40;;;;;;5066779;28;20826;-67
2022/08/10 02:45:28;;;;;;;10.85;6.85;;;15.00;85.60;;;;;;5049843;28;20294;-67
2022/08/10 02:48:00;;;;;;;11.97;7.40;;;14.90;85.60;;;;;;5083022;28;20374;-67
2022/08/10 02:50:35;;;;;;;13.27;7.73;;;15.00;85.60;;;;;;5066442;28;20306;-67
2022/08/10 02:53:01;;;;;;;;;;;15.00;85.60;;;;;;5059315;28;20390;-67
2022/08/10 02:55:48;;;;;;;12.93;7.40;;;15.00;85.70;;;;;;5066280;28;20030;-67
2022/08/10 02:58:21;;;;;;;11.60;7.70;;;15.00;85.40;;;;;;5047137;28;20483;-67
2022/08/10 03:00:52;;;;;;;13.43;7.93;;;15.00;85.60;;;;;;5066882;28;20293;-67
2022/08/10 03:03:29;;;;;;;13.07;8.37;;;14.90;85.50;;;;;;5066645;28;20285;-67
2022/08/10 03:06:01;;;;;;;13.17;8.70;;;15.00;85.70;;;;;;5066366;28;20365;-67
2022/08/10 03:08:32;;;;;;;11.73;8.13;;;15.00;85.70;;;;;;5065600;28;20279;-67
2022/08/10 03:11:02;;;;;;;12.90;7.97;;;15.00;86.10;;;;;;5077123;28;20298;-67
2022/08/10 03:13:29;;;;;;;11.47;7.63;;;15.00;86.00;;;;;;5062978;28;20288;-67
2022/08/10 03:15:56;;;;;;;12.40;8.57;;;14.90;86.00;;;;;;5066200;28;20378;-67
2022/08/10 03:18:23;;;;;;;15.30;7.97;;;14.90;86.20;;;;;;5064552;28;20385;-67
2022/08/10 03:20:51;;;;;;;11.63;7.80;;;14.90;86.20;;;;;;5065846;28;20299;-67
2022/08/10 03:23:20;;;;;;;11.73;7.90;;;14.90;86.40;;;;;;5043106;28;20325;-67
2022/08/10 03:25:48;;;;;;;12.03;8.00;;;14.90;86.30;;;;;;5044832;28;20348;-67
2022/08/10 03:28:15;;;;;;;12.47;7.70;;;14.90;86.60;;;;;;5062372;28;20306;-68
2022/08/10 03:30:42;;;;;;;12.20;8.00;;;14.90;86.50;;;;;;5065621;28;20302;-67
2022/08/10 03:33:09;;;;;;;11.80;8.13;;;14.80;86.60;;;;;;5049310;28;20735;-67
2022/08/10 03:35:35;;;;;;;11.33;8.00;;;14.90;86.50;;;;;;5065122;28;20283;-67
2022/08/10 03:38:01;;;;;;;12.17;7.03;;;14.80;86.50;;;;;;5044536;28;20295;-67
2022/08/10 03:40:33;;;;;;;12.17;7.57;;;14.80;86.70;;;;;;5048104;28;20470;-67
2022/08/10 03:43:01;;;;;;;10.77;7.10;;;14.70;86.60;;;;;;5066003;28;20352;-67
2022/08/10 03:45:28;;;;;;;8.53;6.27;;;14.70;86.50;;;;;;5048552;28;20354;-67
2022/08/10 03:47:56;;;;;;;8.43;6.20;;;14.60;86.50;;;;;;5076963;28;20283;-68
2022/08/10 03:50:23;;;;;;;10.80;6.33;;;14.50;86.30;;;;;;5048544;28;20806;-67
2022/08/10 03:52:49;;;;;;;9.10;6.07;;;14.50;86.20;;;;;;5065485;28;20299;-67
2022/08/10 03:55:16;;;;;;;9.83;6.67;;;14.40;86.50;;;;;;5062388;28;20285;-67
2022/08/10 03:57:42;;;;;;;8.53;5.77;;;14.30;86.40;;;;;;5046967;28;20295;-67
2022/08/10 04:00:09;;;;;;;9.63;6.07;;;14.20;86.40;;;;;;5048918;28;20343;-67
2022/08/10 04:02:35;;;;;;;7.83;6.17;;;14.20;86.60;;;;;;5065157;28;20052;-67
2022/08/10 04:05:00;;;;;;;9.50;6.10;;;14.20;86.50;;;;;;5064491;28;20344;-67
2022/08/10 04:07:28;;;;;;;8.10;5.83;;;14.10;86.50;;;;;;5012412;28;20675;-67
2022/08/10 04:09:53;;;;;;;10.00;6.17;;;14.10;86.50;;;;;;5064668;28;20040;-67
2022/08/10 04:12:19;;;;;;;10.53;6.13;;;14.10;86.50;;;;;;5047266;28;20357;-67
2022/08/10 04:14:46;;;;;;;11.93;6.20;;;14.10;86.50;;;;;;5064736;28;20447;-67
2022/08/10 04:17:11;;;;;;;10.47;6.43;;;14.00;86.50;;;;;;5027122;28;20283;-67
2022/08/10 04:19:43;;;;;;;11.53;6.20;;;14.00;86.50;;;;;;5061055;28;20293;-67
2022/08/10 04:22:20;;;;;;;9.50;6.40;;;14.00;86.80;;;;;;5047472;28;20044;-67
2022/08/10 04:24:52;;;;;;;10.40;6.03;;;14.00;86.90;;;;;;5063675;28;20408;-67
2022/08/10 04:27:18;;;;;;;10.60;6.87;;;14.00;86.80;;;;;;5043541;28;20294;-67
2022/08/10 04:29:44;;;;;;;12.93;6.83;;;14.00;86.90;;;;;;5064640;28;20303;-67
2022/08/10 04:32:13;;;;;;;9.17;6.73;;;14.00;87.00;;;;;;5064541;28;20290;-67
2022/08/10 04:34:42;;;;;;;10.47;7.03;;;14.00;87.00;;;;;;5056722;28;20306;-67
2022/08/10 04:37:10;;;;;;;13.73;7.73;;;14.00;87.10;;;;;;5064372;28;20779;-67
2022/08/10 04:39:36;;;;;;;10.70;7.73;;;14.00;87.20;;;;;;5064583;28;20290;-67
2022/08/10 04:42:03;;;;;;;12.07;6.83;;;14.00;87.20;;;;;;5047712;28;20279;-67
2022/08/10 04:44:28;;;;;;;12.20;8.00;;;14.10;87.30;;;;;;5063647;28;20332;-67
2022/08/10 04:46:54;;;;;;;12.60;8.53;;;14.10;87.30;;;;;;5064474;28;20282;-67
2022/08/10 04:49:20;;;;;;;14.10;8.67;;;14.20;87.20;;;;;;5064223;28;20538;-67
2022/08/10 04:51:46;;;;;;;12.63;8.00;;;14.20;87.30;;;;;;5031216;28;20037;-67
2022/08/10 04:54:11;;;;;;;13.20;8.80;;;14.30;87.30;;;;;;5064289;28;20074;-67
2022/08/10 04:56:38;;;;;;;12.20;8.13;;;14.40;87.20;;;;;;5047217;28;20044;-67
2022/08/10 04:59:06;;;;;;;14.90;8.83;;;14.40;87.40;;;;;;5026047;28;20051;-67
2022/08/10 05:01:33;;;;;;;11.37;7.90;;;14.50;87.30;;;;;;5061223;28;20759;-67
2022/08/10 05:03:58;;;;;;;15.93;9.23;;;14.50;87.30;;;;;;5047207;28;20271;-67
2022/08/10 05:06:24;;;;;;;12.30;8.00;;;14.60;87.30;;;;;;5046998;28;20281;-67
2022/08/10 05:08:50;;;;;;;11.63;8.10;;;14.60;87.20;;;;;;5037686;28;20085;-67
2022/08/10 05:11:15;;;;;;;12.23;8.50;;;14.70;87.20;;;;;;5063269;28;20505;-67
2022/08/10 05:13:41;;;;;;;11.53;7.83;;;14.80;87.30;;;;;;5043391;28;20037;-67
2022/08/10 05:16:07;;;;;;;12.07;8.83;;;14.90;87.30;;;;;;5064149;28;20040;-67
2022/08/10 05:18:32;;;;;;;14.23;9.03;;;15.00;87.40;;;;;;5062220;28;20078;-67
2022/08/10 05:20:58;;;;;;;12.40;8.60;;;15.10;87.20;;;;;;5063721;28;20049;-67
2022/08/10 05:23:24;;;;;;;13.00;8.63;;;15.20;87.20;;;;;;5064365;28;20052;-67
2022/08/10 05:25:49;;;;;;;13.30;8.63;;;15.20;87.10;;;;;;5063046;28;20421;-68
2022/08/10 05:28:15;;;;;;;15.97;9.10;;;15.40;87.30;;;;;;5063173;28;20048;-67
2022/08/10 05:30:41;;;;;;;11.87;8.27;;;15.50;87.40;;;;;;5062218;28;20083;-67
2022/08/10 05:33:07;;;;;;;12.67;8.47;;;15.60;87.50;;;;;;5076808;28;20041;-68
2022/08/10 05:35:33;;;;;;;10.57;7.77;;;15.70;87.60;;;;;;5062586;28;20403;-67
2022/08/10 05:38:00;;;;;;;11.37;8.23;;;15.80;87.50;;;;;;5024806;28;20049;-67
2022/08/10 05:40:27;;;;;;;9.97;7.50;;;15.80;87.40;;;;;;5062244;28;20773;-67
2022/08/10 05:42:53;;;;;;;11.80;7.80;;;15.90;87.40;;;;;;5062945;28;20291;-67
2022/08/10 05:45:22;;;;;;;12.37;7.97;;;15.90;87.30;;;;;;5046784;28;20817;-67
2022/08/10 05:47:49;;;;;;;13.27;7.77;;;16.00;87.30;;;;;;5063371;28;20322;-67
2022/08/10 05:50:21;;;;;;;11.93;7.97;;;16.00;87.30;;;;;;5074376;28;20299;-68
2022/08/10 05:52:47;;;;;;;12.03;7.50;;;16.10;87.40;;;;;;5062374;28;20783;-67
2022/08/10 05:55:13;;;;;;;10.50;7.13;;;16.20;87.10;;;;;;5062591;28;20279;-67
2022/08/10 05:57:39;;;;;;;11.27;7.13;;;16.30;87.00;;;;;;5063313;28;20043;-67
2022/08/10 06:00:08;;;;;;;13.63;7.60;;;16.40;87.20;;;;;;5063448;28;20325;-67
2022/08/10 06:02:40;;;;;;;8.97;6.70;;;16.50;87.00;;;;;;5060572;28;20373;-68
2022/08/10 06:05:18;;;;;;;9.73;7.20;;;16.60;86.80;;;;;;5044842;28;20286;-67
2022/08/10 06:08:21;;;;;;;11.23;7.23;;;16.70;86.90;;;;;;5059759;28;20328;-67
2022/08/10 06:10:48;;;;;;;12.37;7.30;;;16.80;86.80;;;;;;5016510;28;20847;-68
2022/08/10 06:16:07;;;;;;;10.27;6.77;;;17.10;86.50;;;;;;5071639;28;20303;-67
2022/08/10 06:18:34;;;;;;;10.40;7.00;;;17.20;86.50;;;;;;5040708;28;20275;-67
2022/08/10 06:21:00;;;;;;;8.37;5.90;;;17.30;86.20;;;;;;5061705;28;20299;-67
2022/08/10 06:23:29;;;;;;;10.33;5.97;;;17.50;85.90;;;;;;5044184;28;20282;-67
2022/08/10 06:25:55;;;;;;;9.20;5.50;;;17.60;85.80;;;;;;5062692;28;20279;-68
2022/08/10 06:28:23;;;;;;;8.77;5.43;;;17.70;85.40;;;;;;5038579;28;20302;-67
2022/08/10 06:30:51;;;;;;;6.67;4.97;;;17.80;85.50;;;;;;5061287;28;20306;-68
2022/08/10 06:33:20;;;;;;;6.50;5.07;;;17.90;85.60;;;;;;5049984;28;20279;-68
2022/08/10 06:35:49;;;;;;;9.43;4.87;;;18.10;85.40;;;;;;5066638;28;20361;-67
2022/08/10 06:38:16;;;;;;;9.10;5.17;;;18.30;85.30;;;;;;5046160;28;20366;-68
2022/08/10 06:40:44;;;;;;;7.33;4.70;;;18.60;84.80;;;;;;5066707;28;20306;-68
2022/08/10 06:43:14;;;;;;;9.03;4.90;;;18.70;84.30;;;;;;5065110;28;20347;-68
2022/08/10 06:46:07;;;;;;;7.10;4.00;;;19.00;83.10;;;;;;5065188;28;20279;-68
2022/08/10 06:48:50;;;;;;;7.27;4.40;;;19.70;80.30;;;;;;5075160;28;20285;-68
2022/08/10 06:51:29;;;;;;;8.73;4.57;;;20.00;78.70;;;;;;5049956;28;20294;-67
2022/08/10 06:53:58;;;;;;;8.40;4.07;;;20.30;77.50;;;;;;5056334;28;20630;-67
2022/08/10 06:56:26;;;;;;;7.60;3.77;;;20.70;75.70;;;;;;5065740;28;20325;-68
2022/08/10 06:58:59;;;;;;;7.13;3.97;;;21.10;74.00;;;;;;5046947;28;20052;-68
2022/08/10 07:01:34;;;;;;;9.27;4.27;;;21.30;72.80;;;;;;5048274;28;20291;-68
2022/08/10 07:04:24;;;;;;;;;;;21.40;73.20;;;;;;5063935;28;20373;-68
2022/08/10 07:06:50;;;;;;;4.63;2.80;;;21.10;73.70;;;;;;5044396;28;19924;-68
2022/08/10 07:09:18;;;;;;;9.20;3.20;;;20.80;75.20;;;;;;5065859;28;20480;-68
2022/08/10 07:11:46;;;;;;;4.93;3.30;;;20.50;75.20;;;;;;5065027;28;20447;-67
2022/08/10 07:14:15;;;;;;;6.20;3.50;;;20.40;75.30;;;;;;5049641;28;20048;-67
2022/08/10 07:16:43;;;;;;;4.27;3.10;;;20.20;75.40;;;;;;5065871;28;20098;-67
2022/08/10 07:19:10;;;;;;;6.13;3.23;;;20.20;75.60;;;;;;5049866;28;20365;-67
2022/08/10 07:21:41;;;;;;;7.23;3.40;;;20.10;75.80;;;;;;5055108;28;20091;-67
2022/08/10 07:24:09;;;;;;;6.23;3.70;;;20.10;75.90;;;;;;5060166;28;20047;-68
2022/08/10 07:26:44;;;;;;;7.30;3.50;;;20.10;76.50;;;;;;5065423;28;20048;-67
2022/08/10 07:29:12;;;;;;;6.13;3.33;;;20.20;76.40;;;;;;5082087;28;20048;-67
2022/08/10 07:31:39;;;;;;;4.27;3.87;;;20.30;76.00;;;;;;5065138;28;20120;-67
2022/08/10 07:34:06;;;;;;;6.93;3.50;;;20.30;75.50;;;;;;5031731;28;20037;-67
2022/08/10 07:36:34;;;;;;;8.70;3.47;;;20.40;75.40;;;;;;5048851;28;20048;-67
2022/08/10 07:39:03;;;;;;;5.23;3.60;;;20.50;75.10;;;;;;5048123;28;20140;-67
2022/08/10 07:41:31;;;;;;;5.73;3.20;;;20.50;75.20;;;;;;5045631;28;20036;-67
2022/08/10 07:44:03;;;;;;;4.53;3.70;;;20.60;74.80;;;;;;5063225;28;20055;-67
2022/08/10 07:46:30;;;;;;;5.47;3.63;;;20.70;74.60;;;;;;5048783;28;20048;-67
2022/08/10 07:49:04;;;;;;;6.27;4.10;;;20.80;73.80;;;;;;5064227;28;20424;-67
2022/08/10 07:51:32;;;;;;;6.60;3.47;;;20.80;73.60;;;;;;5060794;28;21338;-67
2022/08/10 07:54:00;;;;;;;5.10;3.43;;;20.90;73.60;;;;;;5031879;28;20504;-67
2022/08/10 07:56:27;;;;;;;6.87;3.37;;;21.00;73.10;;;;;;5043905;28;20052;-67
2022/08/10 07:59:06;;;;;;;6.33;3.47;;;21.00;73.10;;;;;;5064769;28;20501;-67
2022/08/10 08:01:37;;;;;;;6.33;3.07;;;21.10;73.00;;;;;;5044840;28;20485;-67
2022/08/10 08:04:05;;;;;;;5.57;3.13;;;21.10;73.00;;;;;;5062372;28;20040;-67
2022/08/10 08:06:32;;;;;;;4.47;3.00;;;21.20;72.70;;;;;;5047400;28;20036;-67
2022/08/10 08:09:00;;;;;;;4.77;3.00;;;21.30;72.80;;;;;;5060733;28;20389;-67
2022/08/10 08:11:27;;;;;;;3.40;2.90;;;21.40;72.20;;;;;;5042892;28;20125;-67
2022/08/10 08:13:55;;;;;;;5.57;3.17;;;21.40;71.70;;;;;;5054504;28;20079;-67
2022/08/10 08:16:22;;;;;;;4.00;2.33;;;21.50;71.40;;;;;;5048132;28;20040;-67
2022/08/10 08:18:51;;;;;;;4.87;2.40;;;21.50;71.50;;;;;;5064793;28;20058;-67
2022/08/10 08:21:18;;;;;;;3.30;2.53;;;21.70;70.90;;;;;;5062266;28;20123;-67
2022/08/10 08:23:45;;;;;;;4.50;2.67;;;21.70;71.20;;;;;;5045849;28;20075;-67
2022/08/10 08:26:12;;;;;;;3.07;2.70;;;21.80;70.90;;;;;;5048054;28;20504;-67
2022/08/10 08:28:40;;;;;;;4.97;2.60;;;21.90;70.20;;;;;;5058566;28;20045;-67
2022/08/10 08:31:06;;;;;;;4.47;2.80;;;22.00;70.00;;;;;;5046583;28;20786;-67
2022/08/10 08:33:33;;;;;;;4.43;2.80;;;22.10;69.30;;;;;;5056675;28;20443;-67
2022/08/10 08:35:59;;;;;;;3.97;2.40;;;22.20;68.50;;;;;;5058335;28;20029;-67
2022/08/10 08:38:26;;;;;;;4.50;2.40;;;22.30;68.10;;;;;;5047238;28;20113;-67
2022/08/10 08:41:02;;;;;;;4.40;2.07;;;22.30;68.70;;;;;;5051619;28;20041;-67
2022/08/10 08:44:10;;;;;;;4.53;1.80;;;22.40;68.60;;;;;;5049643;28;20413;-67
2022/08/10 08:47:01;;;;;;;5.80;2.53;;;22.60;67.00;;;;;;5028199;28;20083;-67
2022/08/10 08:49:48;;;;;;;2.33;1.80;;;22.70;67.10;;;;;;5070041;28;20698;-67
2022/08/10 08:52:14;;;;;;;5.50;1.97;;;22.80;66.80;;;;;;5062293;28;20101;-68
2022/08/10 08:55:06;;;;;;;4.10;2.33;;;22.90;66.60;;;;;;5050354;28;20124;-68
2022/08/10 08:57:50;;;;;;;7.27;2.40;;;23.00;66.50;;;;;;5060469;28;20481;-68
2022/08/10 09:01:00;;;;;;;5.47;2.60;;;23.10;66.70;;;;;;5065372;28;20528;-68
2022/08/10 09:03:55;;;;;;;4.20;2.27;;;23.20;66.30;;;;;;5035244;28;20052;-68
2022/08/10 09:06:51;;;;;;;5.50;2.30;;;23.30;66.50;;;;;;5055741;28;20396;-68
2022/08/10 09:09:45;;;;;;;3.30;2.13;;;23.40;65.90;;;;;;5072178;28;20040;-67
2022/08/10 09:12:42;;;;;;;3.43;2.00;;;23.50;65.10;;;;;;5063020;28;20115;-68
2022/08/10 09:15:13;;;;;;;3.73;1.97;;;23.60;65.60;;;;;;5045962;28;20074;-68
2022/08/10 09:17:51;;;;;;;3.60;1.97;;;23.70;65.50;;;;;;5052572;28;20094;-68
2022/08/10 09:20:32;;;;;;;5.23;2.63;;;23.80;64.10;;;;;;5062493;28;20040;-68
2022/08/10 09:23:38;;;;;;;4.07;1.90;;;23.90;64.40;;;;;;5042259;28;20033;-69
2022/08/10 09:26:19;;;;;;;4.03;2.07;;;24.00;63.70;;;;;;5012286;28;20600;-68
2022/08/10 09:28:45;;;;;;;3.27;2.00;;;24.10;64.20;;;;;;5037002;28;20044;-69
2022/08/10 09:31:12;;;;;;;4.17;2.00;;;24.20;64.20;;;;;;5062015;28;20045;-68
2022/08/10 09:34:15;;;;;;;4.23;2.30;;;24.40;63.80;;;;;;5044954;28;20036;-68
2022/08/10 09:36:49;;;;;;;4.83;2.40;;;24.50;63.10;;;;;;5047141;28;20654;-68
2022/08/10 09:39:37;;;;;;;3.83;2.67;;;24.50;62.20;;;;;;5045798;28;20040;-68
2022/08/10 09:42:14;;;;;;;4.47;2.43;;;24.60;62.00;;;;;;5060840;28;20048;-68
2022/08/10 09:45:03;;;;;;;3.37;2.10;;;24.60;61.90;;;;;;5061975;28;20041;-69
2022/08/10 09:47:53;;;;;;;4.83;2.03;;;24.70;61.80;;;;;;5063800;28;20037;-68
2022/08/10 09:50:27;;;;;;;2.37;1.50;;;24.80;61.20;;;;;;5075969;28;20364;-68
2022/08/10 09:53:12;;;;;;;4.35;1.85;;;24.80;60.70;;;;;;5059638;28;20048;-68
2022/08/10 09:56:28;;;;;;;3.95;2.08;;;24.90;59.50;;;;;;5063054;28;20441;-68
2022/08/10 09:59:15;;;;;;;3.33;1.93;;;25.00;59.30;;;;;;5035909;28;20090;-68
2022/08/10 10:01:56;;;;;;;4.90;1.77;;;25.10;59.10;;;;;;5058749;28;20044;-68
2022/08/10 10:04:32;;;;;;;3.70;1.97;;;25.20;58.60;;;;;;5041704;28;20040;-69
2022/08/10 10:07:03;;;;;;;5.20;1.93;;;25.20;58.70;;;;;;5052504;28;20051;-68
2022/08/10 10:09:59;;;;;;;2.50;1.53;;;25.20;58.40;;;;;;5074710;28;20052;-68
2022/08/10 10:13:07;;;;;;;2.90;1.20;;;25.30;57.70;;;;;;5053815;28;20036;-68
2022/08/10 10:15:53;;;;;;;2.13;1.80;;;25.40;57.90;;;;;;5052010;28;20043;-68
2022/08/10 10:18:28;;;;;;;4.13;1.80;;;25.50;57.90;;;;;;5049518;28;20056;-68
2022/08/10 10:21:12;;;;;;;;;;;25.60;57.50;;;;;;5072106;28;20040;-69
2022/08/10 10:24:09;;;;;;;3.43;2.10;;;25.70;57.90;;;;;;5051802;28;19978;-69
2022/08/10 10:26:58;;;;;;;5.37;1.80;;;25.90;56.90;;;;;;5035881;28;20576;-69
2022/08/10 10:29:52;;;;;;;3.07;2.10;;;25.90;57.00;;;;;;5056660;28;20555;-69
2022/08/10 10:32:32;;;;;;;4.33;1.90;;;26.00;56.90;;;;;;5065276;28;20049;-69
2022/08/10 10:35:22;;;;;;;4.53;1.50;;;26.00;56.40;;;;;;5041669;28;20044;-69
2022/08/10 10:37:50;;;;;;;3.77;1.90;;;26.10;56.50;;;;;;5066212;28;20045;-69
2022/08/10 10:40:18;;;;;;;4.50;1.70;;;26.20;56.20;;;;;;5049264;28;20071;-69
2022/08/10 10:43:05;;;;;;;3.37;2.00;;;26.10;56.10;;;;;;5065766;28;20570;-69
2022/08/10 10:46:00;;;;;;;5.40;1.60;;;26.20;55.90;;;;;;5065662;28;20059;-69
2022/08/10 10:48:40;;;;;;;3.03;1.80;;;26.30;56.30;;;;;;5044035;28;20522;-69
2022/08/10 10:51:35;;;;;;;1.53;1.40;;;26.40;55.00;;;;;;5069080;28;20044;-68
2022/08/10 10:54:28;;;;;;;;;;;26.50;55.40;;;;;;5064145;28;20036;-70
2022/08/10 10:57:08;;;;;;;3.13;1.30;;;26.50;54.90;;;;;;5058812;28;19931;-69
2022/08/10 10:59:43;;;;;;;1.97;1.33;;;26.50;55.60;;;;;;5063651;28;20032;-70
2022/08/10 11:02:15;;;;;;;;;;;26.60;54.80;;;;;;5065920;28;20037;-70
2022/08/10 11:05:04;;;;;;;1.87;1.00;;;26.60;54.80;;;;;;5065561;28;19931;-70
2022/08/10 11:07:52;;;;;;;3.33;1.33;;;26.70;54.60;;;;;;5063024;28;20036;-69
2022/08/10 11:10:23;;;;;;;1.57;1.17;;;26.80;55.20;;;;;;5064671;28;20067;-69
2022/08/10 11:13:06;;;;;;;2.97;1.40;;;26.90;55.00;;;;;;5062967;28;20086;-68
2022/08/10 11:15:38;;;;;;;4.50;1.63;;;27.10;52.80;;;;;;5064512;28;20036;-69
2022/08/10 11:18:34;;;;;;;3.20;1.27;;;27.10;52.60;;;;;;5070689;28;20232;-70
2022/08/10 11:21:23;;;;;;;3.77;1.53;;;27.20;53.20;;;;;;5060565;28;20123;-69
2022/08/10 11:24:13;;;;;;;3.20;1.20;;;27.30;53.10;;;;;;5048243;28;20075;-69
2022/08/10 11:26:50;;;;;;;2.80;1.37;;;27.40;52.20;;;;;;5076621;28;20045;-70
2022/08/10 11:29:28;;;;;;;3.07;1.20;;;27.40;53.10;;;;;;5058208;28;20178;-69
2022/08/10 11:32:01;;;;;;;1.83;1.10;;;27.50;52.50;;;;;;5060825;28;20078;-70
2022/08/10 11:35:04;;;;;;;1.70;1.13;;;27.60;52.50;;;;;;5060334;28;20060;-69
2022/08/10 11:37:39;;;;;;;3.93;1.20;;;27.70;51.90;;;;;;5072921;28;20086;-70
2022/08/10 11:40:14;;;;;;;2.90;1.40;;;27.80;51.50;;;;;;5060693;28;20121;-70
2022/08/10 11:43:02;;;;;;;1.90;1.08;;;27.80;50.80;;;;;;5078387;28;20102;-69
2022/08/10 11:45:34;;;;;;;3.47;1.37;;;27.90;50.90;;;;;;5079591;28;20048;-69
2022/08/10 11:48:22;;;;;;;2.17;1.20;;;27.90;50.60;;;;;;5064288;28;20048;-69
2022/08/10 11:51:00;;;;;;;1.80;1.03;;;28.00;51.40;;;;;;5063296;28;20045;-69
2022/08/10 11:53:50;;;;;;;3.43;1.07;;;28.10;50.40;;;;;;5038915;28;20710;-70
2022/08/10 11:56:30;;;;;;;2.87;0.90;;;28.20;50.70;;;;;;5053655;28;20032;-70
2022/08/10 12:01:44;;;;;;;2.70;1.07;;;28.50;48.80;;;;;;5056346;28;20033;-70
2022/08/10 12:04:12;;;;;;;2.30;0.90;;;28.40;48.80;;;;;;5069680;28;20049;-70
2022/08/10 12:06:40;;;;;;;3.67;1.00;;;28.40;48.30;;;;;;5053051;28;20493;-70
2022/08/10 12:09:07;;;;;;;2.83;0.70;;;28.50;48.60;;;;;;5069852;28;20675;-70
2022/08/10 12:11:34;;;;;;;1.80;0.87;;;28.50;49.40;;;;;;5038126;28;20045;-70
2022/08/10 12:14:09;;;;;;;1.63;0.60;;;28.60;48.50;;;;;;5044713;28;20048;-69
2022/08/10 12:16:39;;;;;;;1.67;0.80;;;28.70;47.70;;;;;;5054073;28;20445;-69
2022/08/10 12:19:17;;;;;;;1.70;0.83;;;28.90;47.10;;;;;;5063323;28;20060;-69
2022/08/10 12:22:00;;;;;;;2.60;0.87;;;28.90;46.20;;;;;;5063619;28;20108;-69
2022/08/10 12:24:39;;;;;;;2.80;0.80;;;28.90;46.70;;;;;;5081559;28;20072;-69
2022/08/10 12:27:20;;;;;;;3.00;0.70;;;28.90;46.50;;;;;;5075085;28;20036;-69
2022/08/10 12:30:05;;;;;;;1.70;0.80;;;28.90;46.60;;;;;;5064477;28;20503;-69
2022/08/10 12:33:01;;;;;;;1.65;0.77;;;29.00;46.10;;;;;;5047869;28;20068;-69
2022/08/10 12:35:55;;;;;;;2.00;0.80;;;29.00;46.30;;;;;;5057619;28;20040;-69
2022/08/10 12:38:49;;;;;;;3.17;0.87;;;29.00;45.60;;;;;;5059757;28;20036;-69
2022/08/10 12:41:24;;;;;;;1.00;0.70;;;29.00;45.20;;;;;;5060014;28;20044;-69
2022/08/10 12:44:00;;;;;;;3.73;1.10;;;29.10;45.60;;;;;;5063444;28;20076;-69
2022/08/10 12:46:49;;;;;;;2.97;1.13;;;29.20;45.70;;;;;;5061837;28;20071;-69
2022/08/10 12:49:48;;;;;;;2.10;1.07;;;29.20;45.60;;;;;;5063230;28;20040;-69
2022/08/10 12:52:18;;;;;;;1.90;0.83;;;29.20;45.90;;;;;;5074608;28;20040;-69
2022/08/10 12:54:45;;;;;;;2.00;1.00;;;29.30;45.50;;;;;;5063972;28;20452;-69
2022/08/10 12:57:15;;;;;;;2.40;1.00;;;29.20;45.50;;;;;;5042836;28;20557;-69
2022/08/10 12:59:43;;;;;;;2.57;0.87;;;29.30;45.10;;;;;;5063654;28;20059;-69
2022/08/10 13:02:13;;;;;;;3.57;1.00;;;29.30;45.40;;;;;;5062523;28;20055;-69
2022/08/10 13:04:41;;;;;;;2.70;1.00;;;29.40;45.60;;;;;;5044206;28;20217;-69
2022/08/10 13:07:08;;;;;;;2.57;0.70;;;29.40;45.00;;;;;;5073867;28;20048;-69
2022/08/10 13:09:35;;;;;;;2.60;0.90;;;29.50;45.10;;;;;;5043543;28;20556;-69
2022/08/10 13:12:06;;;;;;;1.37;0.60;;;29.50;44.90;;;;;;5046875;28;21214;-69
2022/08/10 13:14:40;;;;;;;1.90;0.57;;;29.60;44.80;;;;;;5059994;28;20036;-69
2022/08/10 13:17:07;;;;;;;1.92;0.60;;;29.50;45.40;;;;;;5061306;28;20037;-69
2022/08/10 13:19:42;;;;;;;5.27;1.10;;;29.60;45.30;;;;;;5031608;28;20047;-69
2022/08/10 13:22:10;;;;;;;1.33;0.60;;;29.80;44.60;;;;;;5055115;28;20432;-70
2022/08/10 13:24:43;;;;;;;2.77;0.70;;;29.80;44.30;;;;;;5058262;28;20040;-69
2022/08/10 13:27:12;;;;;;;2.07;0.90;;;29.90;44.40;;;;;;5065206;28;20052;-69